sensor_id;sensor_type;location;lat;lon;timestamp;pressure;altitude;pressure_sealevel;temperature;humidity
69223;BME280;56514;51.816;-0.026;2023-03-25T00:00:05;99287.75;;;10.24;66.70
69223;BME280;56514;51.816;-0.026;2023-03-25T00:03:21;99285.00;;;10.35;65.49
69223;BME280;56514;51.816;-0.026;2023-03-25T00:06:33;99296.94;;;10.29;65.73
69223;BME280;56514;51.816;-0.026;2023-03-25T00:09:40;99300.63;;;10.08;66.18
69223;BME280;56514;51.816;-0.026;2023-03-25T00:12:48;99297.25;;;10.06;66.23
69223;BME280;56514;51.816;-0.026;2023-03-25T00:16:02;99299.34;;;10.02;66.33
69223;BME280;56514;51.816;-0.026;2023-03-25T00:19:10;99306.50;;;9.91;66.47
69223;BME280;56514;51.816;-0.026;2023-03-25T00:22:20;99302.31;;;9.79;67.13
69223;BME280;56514;51.816;-0.026;2023-03-25T00:25:30;99302.19;;;9.80;66.37
69223;BME280;56514;51.816;-0.026;2023-03-25T00:28:40;99313.38;;;9.73;66.70
69223;BME280;56514;51.816;-0.026;2023-03-25T00:31:25;99308.66;;;9.67;66.72
69223;BME280;56514;51.816;-0.026;2023-03-25T00:34:11;99301.94;;;9.53;67.00
69223;BME280;56514;51.816;-0.026;2023-03-25T00:37:00;99306.09;;;9.56;66.54
69223;BME280;56514;51.816;-0.026;2023-03-25T00:39:48;99297.81;;;9.60;65.40
69223;BME280;56514;51.816;-0.026;2023-03-25T00:42:33;99290.75;;;9.61;65.34
69223;BME280;56514;51.816;-0.026;2023-03-25T00:45:19;99302.00;;;9.63;64.89
69223;BME280;56514;51.816;-0.026;2023-03-25T00:48:04;99294.91;;;9.54;65.00
69223;BME280;56514;51.816;-0.026;2023-03-25T00:50:49;99296.63;;;9.44;65.06
69223;BME280;56514;51.816;-0.026;2023-03-25T00:53:36;99301.63;;;9.47;64.92
69223;BME280;56514;51.816;-0.026;2023-03-25T00:56:22;99295.78;;;9.43;65.24
69223;BME280;56514;51.816;-0.026;2023-03-25T00:59:09;99300.56;;;9.49;64.76
69223;BME280;56514;51.816;-0.026;2023-03-25T01:01:54;99304.06;;;9.59;64.20
69223;BME280;56514;51.816;-0.026;2023-03-25T01:04:39;99313.59;;;9.51;64.19
69223;BME280;56514;51.816;-0.026;2023-03-25T01:07:24;99318.41;;;9.46;64.46
69223;BME280;56514;51.816;-0.026;2023-03-25T01:10:12;99322.09;;;9.43;64.68
69223;BME280;56514;51.816;-0.026;2023-03-25T01:12:58;99322.44;;;9.50;64.72
69223;BME280;56514;51.816;-0.026;2023-03-25T01:15:43;99318.31;;;9.57;64.06
69223;BME280;56514;51.816;-0.026;2023-03-25T01:18:27;99331.34;;;9.58;64.46
69223;BME280;56514;51.816;-0.026;2023-03-25T01:21:13;99312.22;;;9.56;64.56
69223;BME280;56514;51.816;-0.026;2023-03-25T01:23:58;99308.06;;;9.63;64.35
69223;BME280;56514;51.816;-0.026;2023-03-25T01:26:44;99314.25;;;9.53;64.96
69223;BME280;56514;51.816;-0.026;2023-03-25T01:29:32;99308.41;;;9.40;65.62
69223;BME280;56514;51.816;-0.026;2023-03-25T01:32:17;99314.59;;;9.39;65.75
69223;BME280;56514;51.816;-0.026;2023-03-25T01:35:03;99309.78;;;9.44;66.22
69223;BME280;56514;51.816;-0.026;2023-03-25T01:37:49;99306.81;;;9.58;66.02
69223;BME280;56514;51.816;-0.026;2023-03-25T01:40:38;99311.09;;;9.49;66.45
69223;BME280;56514;51.816;-0.026;2023-03-25T01:43:23;99310.69;;;9.54;66.40
69223;BME280;56514;51.816;-0.026;2023-03-25T01:46:11;99302.94;;;9.52;66.60
69223;BME280;56514;51.816;-0.026;2023-03-25T01:48:58;99311.63;;;9.53;67.15
69223;BME280;56514;51.816;-0.026;2023-03-25T01:51:45;99301.16;;;9.62;66.56
69223;BME280;56514;51.816;-0.026;2023-03-25T01:54:34;99305.09;;;9.47;67.32
69223;BME280;56514;51.816;-0.026;2023-03-25T01:57:23;99310.72;;;9.63;66.88
69223;BME280;56514;51.816;-0.026;2023-03-25T02:00:10;99308.78;;;9.65;67.20
69223;BME280;56514;51.816;-0.026;2023-03-25T02:02:57;99305.31;;;9.65;66.83
69223;BME280;56514;51.816;-0.026;2023-03-25T02:06:06;99304.38;;;9.66;67.26
69223;BME280;56514;51.816;-0.026;2023-03-25T02:08:55;99304.91;;;9.60;67.20
69223;BME280;56514;51.816;-0.026;2023-03-25T02:11:41;99302.59;;;9.76;66.78
69223;BME280;56514;51.816;-0.026;2023-03-25T02:14:29;99303.97;;;9.80;66.21
69223;BME280;56514;51.816;-0.026;2023-03-25T02:23:28;99304.44;;;9.55;67.18
69223;BME280;56514;51.816;-0.026;2023-03-25T02:29:56;99309.78;;;9.44;67.41
69223;BME280;56514;51.816;-0.026;2023-03-25T02:39:45;99300.44;;;9.51;68.14
69223;BME280;56514;51.816;-0.026;2023-03-25T02:43:17;99309.59;;;9.36;69.25
69223;BME280;56514;51.816;-0.026;2023-03-25T02:46:08;99306.72;;;9.39;69.60
69223;BME280;56514;51.816;-0.026;2023-03-25T02:49:08;99312.94;;;9.38;69.92
69223;BME280;56514;51.816;-0.026;2023-03-25T02:51:55;99318.72;;;9.32;69.91
69223;BME280;56514;51.816;-0.026;2023-03-25T02:54:43;99315.84;;;9.35;69.81
69223;BME280;56514;51.816;-0.026;2023-03-25T02:57:30;99307.63;;;9.28;69.93
69223;BME280;56514;51.816;-0.026;2023-03-25T03:00:25;99311.56;;;9.34;69.83
69223;BME280;56514;51.816;-0.026;2023-03-25T03:03:12;99311.16;;;9.18;69.94
69223;BME280;56514;51.816;-0.026;2023-03-25T03:06:01;99317.84;;;9.22;70.20
69223;BME280;56514;51.816;-0.026;2023-03-25T03:12:06;99312.94;;;9.38;68.99
69223;BME280;56514;51.816;-0.026;2023-03-25T03:21:12;99317.41;;;9.77;67.19
69223;BME280;56514;51.816;-0.026;2023-03-25T03:24:14;99316.88;;;9.83;67.00
69223;BME280;56514;51.816;-0.026;2023-03-25T03:33:47;99323.56;;;9.87;66.59
69223;BME280;56514;51.816;-0.026;2023-03-25T03:36:46;99331.91;;;9.92;66.00
69223;BME280;56514;51.816;-0.026;2023-03-25T03:39:35;99328.97;;;9.85;66.06
69223;BME280;56514;51.816;-0.026;2023-03-25T03:42:34;99330.88;;;9.83;66.44
69223;BME280;56514;51.816;-0.026;2023-03-25T03:45:33;99336.09;;;9.74;66.43
69223;BME280;56514;51.816;-0.026;2023-03-25T03:48:23;99336.09;;;9.74;66.59
69223;BME280;56514;51.816;-0.026;2023-03-25T03:51:17;99328.00;;;9.56;67.26
69223;BME280;56514;51.816;-0.026;2023-03-25T03:54:17;99339.41;;;9.66;67.06
69223;BME280;56514;51.816;-0.026;2023-03-25T03:57:14;99335.25;;;9.64;66.85
69223;BME280;56514;51.816;-0.026;2023-03-25T04:00:07;99341.63;;;9.61;67.32
69223;BME280;56514;51.816;-0.026;2023-03-25T04:03:11;99338.31;;;9.69;67.08
69223;BME280;56514;51.816;-0.026;2023-03-25T04:06:11;99336.28;;;9.52;68.01
69223;BME280;56514;51.816;-0.026;2023-03-25T04:09:07;99336.03;;;9.55;67.79
69223;BME280;56514;51.816;-0.026;2023-03-25T04:11:59;99340.41;;;9.45;68.42
69223;BME280;56514;51.816;-0.026;2023-03-25T04:14:46;99343.41;;;9.40;68.24
69223;BME280;56514;51.816;-0.026;2023-03-25T04:17:32;99358.81;;;9.45;68.96
69223;BME280;56514;51.816;-0.026;2023-03-25T04:20:25;99363.34;;;9.54;68.24
69223;BME280;56514;51.816;-0.026;2023-03-25T04:23:13;99365.59;;;9.68;68.42
69223;BME280;56514;51.816;-0.026;2023-03-25T04:26:01;99357.97;;;9.65;68.60
69223;BME280;56514;51.816;-0.026;2023-03-25T04:28:46;99359.91;;;9.63;68.72
69223;BME280;56514;51.816;-0.026;2023-03-25T04:31:31;99391.59;;;9.82;68.16
69223;BME280;56514;51.816;-0.026;2023-03-25T04:34:16;99360.84;;;9.82;67.81
69223;BME280;56514;51.816;-0.026;2023-03-25T04:37:04;99366.81;;;9.94;67.38
69223;BME280;56514;51.816;-0.026;2023-03-25T04:39:50;99373.41;;;9.79;68.75
69223;BME280;56514;51.816;-0.026;2023-03-25T04:42:35;99371.69;;;9.89;68.39
69223;BME280;56514;51.816;-0.026;2023-03-25T04:45:21;99369.47;;;9.94;68.15
69223;BME280;56514;51.816;-0.026;2023-03-25T04:48:21;99376.69;;;10.01;67.96
69223;BME280;56514;51.816;-0.026;2023-03-25T04:51:07;99376.97;;;9.98;68.20
69223;BME280;56514;51.816;-0.026;2023-03-25T04:53:53;99378.06;;;9.96;68.53
69223;BME280;56514;51.816;-0.026;2023-03-25T04:56:39;99372.66;;;9.97;68.63
69223;BME280;56514;51.816;-0.026;2023-03-25T04:59:24;99383.88;;;9.90;68.79
69223;BME280;56514;51.816;-0.026;2023-03-25T05:02:11;99383.38;;;10.05;68.08
69223;BME280;56514;51.816;-0.026;2023-03-25T05:05:00;99371.03;;;10.06;67.91
69223;BME280;56514;51.816;-0.026;2023-03-25T05:07:47;99383.97;;;10.09;67.93
69223;BME280;56514;51.816;-0.026;2023-03-25T05:10:35;99370.97;;;10.17;67.72
69223;BME280;56514;51.816;-0.026;2023-03-25T05:13:22;99382.88;;;10.21;67.81
69223;BME280;56514;51.816;-0.026;2023-03-25T05:16:08;99376.81;;;10.20;67.63
69223;BME280;56514;51.816;-0.026;2023-03-25T05:18:56;99388.44;;;10.18;67.47
69223;BME280;56514;51.816;-0.026;2023-03-25T05:21:41;99381.50;;;10.17;67.95
69223;BME280;56514;51.816;-0.026;2023-03-25T05:24:26;99383.03;;;10.19;68.15
69223;BME280;56514;51.816;-0.026;2023-03-25T05:27:13;99381.22;;;10.20;68.10
69223;BME280;56514;51.816;-0.026;2023-03-25T05:30:05;99383.56;;;10.13;68.46
69223;BME280;56514;51.816;-0.026;2023-03-25T05:32:50;99393.81;;;10.07;68.86
69223;BME280;56514;51.816;-0.026;2023-03-25T05:35:37;99395.59;;;10.06;69.16
69223;BME280;56514;51.816;-0.026;2023-03-25T05:38:22;99393.44;;;10.21;69.04
69223;BME280;56514;51.816;-0.026;2023-03-25T05:41:12;99392.34;;;10.23;68.99
69223;BME280;56514;51.816;-0.026;2023-03-25T05:44:00;99401.34;;;10.21;69.45
69223;BME280;56514;51.816;-0.026;2023-03-25T05:46:45;99404.09;;;10.19;69.46
69223;BME280;56514;51.816;-0.026;2023-03-25T05:49:36;99410.50;;;10.17;70.18
69223;BME280;56514;51.816;-0.026;2023-03-25T05:52:22;99407.59;;;10.20;69.51
69223;BME280;56514;51.816;-0.026;2023-03-25T05:55:15;99419.09;;;10.19;69.87
69223;BME280;56514;51.816;-0.026;2023-03-25T05:58:01;99414.66;;;10.19;69.87
69223;BME280;56514;51.816;-0.026;2023-03-25T06:00:46;99414.50;;;10.11;69.82
69223;BME280;56514;51.816;-0.026;2023-03-25T06:03:33;99417.00;;;10.13;70.04
69223;BME280;56514;51.816;-0.026;2023-03-25T06:06:18;99414.63;;;10.10;70.32
69223;BME280;56514;51.816;-0.026;2023-03-25T06:09:02;99420.84;;;10.09;70.16
69223;BME280;56514;51.816;-0.026;2023-03-25T06:11:48;99429.19;;;10.14;70.25
69223;BME280;56514;51.816;-0.026;2023-03-25T06:14:37;99429.63;;;10.19;69.91
69223;BME280;56514;51.816;-0.026;2023-03-25T06:17:22;99421.03;;;10.17;70.25
69223;BME280;56514;51.816;-0.026;2023-03-25T06:20:09;99421.81;;;10.08;70.24
69223;BME280;56514;51.816;-0.026;2023-03-25T06:22:55;99428.13;;;9.96;70.40
69223;BME280;56514;51.816;-0.026;2023-03-25T06:25:40;99424.59;;;9.86;71.06
69223;BME280;56514;51.816;-0.026;2023-03-25T06:28:25;99447.78;;;10.12;70.25
69223;BME280;56514;51.816;-0.026;2023-03-25T06:31:17;99431.63;;;10.06;70.45
69223;BME280;56514;51.816;-0.026;2023-03-25T06:41:18;99433.00;;;10.30;69.21
69223;BME280;56514;51.816;-0.026;2023-03-25T06:44:10;99447.59;;;10.44;68.83
69223;BME280;56514;51.816;-0.026;2023-03-25T06:46:55;99429.44;;;10.41;68.69
69223;BME280;56514;51.816;-0.026;2023-03-25T06:49:40;99445.38;;;10.39;68.85
69223;BME280;56514;51.816;-0.026;2023-03-25T06:52:26;99436.78;;;10.47;68.34
69223;BME280;56514;51.816;-0.026;2023-03-25T06:55:14;99444.84;;;10.36;69.01
69223;BME280;56514;51.816;-0.026;2023-03-25T06:57:59;99443.88;;;10.46;69.11
69223;BME280;56514;51.816;-0.026;2023-03-25T07:00:44;99444.22;;;10.72;67.88
69223;BME280;56514;51.816;-0.026;2023-03-25T07:03:30;99447.97;;;10.79;67.49
69223;BME280;56514;51.816;-0.026;2023-03-25T07:06:18;99449.25;;;10.94;66.34
69223;BME280;56514;51.816;-0.026;2023-03-25T07:09:07;99447.31;;;10.96;66.81
69223;BME280;56514;51.816;-0.026;2023-03-25T07:11:55;99427.31;;;10.84;66.43
69223;BME280;56514;51.816;-0.026;2023-03-25T07:14:41;99439.81;;;11.01;66.10
69223;BME280;56514;51.816;-0.026;2023-03-25T07:17:30;99450.38;;;11.11;65.47
69223;BME280;56514;51.816;-0.026;2023-03-25T07:20:15;99450.66;;;10.98;67.91
69223;BME280;56514;51.816;-0.026;2023-03-25T07:23:00;99459.81;;;10.85;68.27
69223;BME280;56514;51.816;-0.026;2023-03-25T07:25:45;99469.38;;;10.86;67.81
69223;BME280;56514;51.816;-0.026;2023-03-25T07:28:32;99467.59;;;10.86;67.96
69223;BME280;56514;51.816;-0.026;2023-03-25T07:31:18;99495.06;;;10.93;67.71
69223;BME280;56514;51.816;-0.026;2023-03-25T07:34:03;99481.66;;;11.15;66.98
69223;BME280;56514;51.816;-0.026;2023-03-25T07:36:51;99513.16;;;11.26;66.52
69223;BME280;56514;51.816;-0.026;2023-03-25T07:39:36;99501.78;;;11.35;65.55
69223;BME280;56514;51.816;-0.026;2023-03-25T07:42:21;99510.00;;;11.42;64.95
69223;BME280;56514;51.816;-0.026;2023-03-25T07:45:06;99520.28;;;11.54;63.84
69223;BME280;56514;51.816;-0.026;2023-03-25T07:47:51;99507.50;;;11.59;63.26
69223;BME280;56514;51.816;-0.026;2023-03-25T07:50:37;99513.91;;;11.66;63.18
69223;BME280;56514;51.816;-0.026;2023-03-25T07:53:22;99515.72;;;11.75;62.58
69223;BME280;56514;51.816;-0.026;2023-03-25T07:56:08;99525.28;;;11.95;60.79
69223;BME280;56514;51.816;-0.026;2023-03-25T07:58:56;99532.91;;;12.08;59.41
69223;BME280;56514;51.816;-0.026;2023-03-25T08:01:41;99546.13;;;11.98;59.42
69223;BME280;56514;51.816;-0.026;2023-03-25T08:04:26;99542.78;;;12.06;59.28
69223;BME280;56514;51.816;-0.026;2023-03-25T08:07:11;99560.28;;;12.16;58.68
69223;BME280;56514;51.816;-0.026;2023-03-25T08:09:56;99564.78;;;12.06;58.93
69223;BME280;56514;51.816;-0.026;2023-03-25T08:12:42;99557.78;;;12.24;57.54
69223;BME280;56514;51.816;-0.026;2023-03-25T08:15:28;99570.44;;;12.11;58.05
69223;BME280;56514;51.816;-0.026;2023-03-25T08:18:13;99588.38;;;12.17;58.11
69223;BME280;56514;51.816;-0.026;2023-03-25T08:20:59;99576.31;;;12.05;58.43
69223;BME280;56514;51.816;-0.026;2023-03-25T08:23:45;99578.13;;;12.05;58.56
69223;BME280;56514;51.816;-0.026;2023-03-25T08:26:32;99591.88;;;12.18;57.92
69223;BME280;56514;51.816;-0.026;2023-03-25T08:29:19;99594.50;;;12.27;57.88
69223;BME280;56514;51.816;-0.026;2023-03-25T08:32:04;99602.72;;;12.24;58.21
69223;BME280;56514;51.816;-0.026;2023-03-25T08:34:53;99602.28;;;12.38;57.70
69223;BME280;56514;51.816;-0.026;2023-03-25T08:37:42;99618.41;;;12.45;57.41
69223;BME280;56514;51.816;-0.026;2023-03-25T08:40:27;99615.59;;;12.56;56.94
69223;BME280;56514;51.816;-0.026;2023-03-25T08:43:15;99623.09;;;12.61;57.25
69223;BME280;56514;51.816;-0.026;2023-03-25T08:46:04;99629.78;;;12.65;57.26
69223;BME280;56514;51.816;-0.026;2023-03-25T08:48:51;99626.94;;;12.76;56.49
69223;BME280;56514;51.816;-0.026;2023-03-25T08:51:37;99639.38;;;12.75;56.96
69223;BME280;56514;51.816;-0.026;2023-03-25T08:54:23;99651.25;;;12.98;55.85
69223;BME280;56514;51.816;-0.026;2023-03-25T08:57:09;99651.78;;;13.11;55.78
69223;BME280;56514;51.816;-0.026;2023-03-25T08:59:55;99647.72;;;13.17;55.38
69223;BME280;56514;51.816;-0.026;2023-03-25T09:02:41;99654.63;;;13.27;54.49
69223;BME280;56514;51.816;-0.026;2023-03-25T09:05:27;99661.50;;;13.20;55.26
69223;BME280;56514;51.816;-0.026;2023-03-25T09:08:16;99657.25;;;13.37;54.11
69223;BME280;56514;51.816;-0.026;2023-03-25T09:11:01;99676.91;;;13.34;54.15
69223;BME280;56514;51.816;-0.026;2023-03-25T09:13:49;99676.22;;;13.32;54.25
69223;BME280;56514;51.816;-0.026;2023-03-25T09:20:24;99694.66;;;13.24;54.91
69223;BME280;56514;51.816;-0.026;2023-03-25T09:23:13;99693.03;;;13.41;53.06
69223;BME280;56514;51.816;-0.026;2023-03-25T09:26:13;99693.88;;;13.41;52.79
69223;BME280;56514;51.816;-0.026;2023-03-25T09:28:59;99704.38;;;13.33;53.30
69223;BME280;56514;51.816;-0.026;2023-03-25T09:31:50;99697.56;;;13.31;53.59
69223;BME280;56514;51.816;-0.026;2023-03-25T09:34:51;99735.94;;;13.54;52.22
69223;BME280;56514;51.816;-0.026;2023-03-25T09:37:39;99705.91;;;13.36;53.29
69223;BME280;56514;51.816;-0.026;2023-03-25T09:40:25;99730.63;;;13.54;52.63
69223;BME280;56514;51.816;-0.026;2023-03-25T09:43:50;99727.69;;;13.57;52.23
69223;BME280;56514;51.816;-0.026;2023-03-25T09:47:13;99736.09;;;13.52;52.51
69223;BME280;56514;51.816;-0.026;2023-03-25T09:50:06;99739.19;;;13.48;53.33
69223;BME280;56514;51.816;-0.026;2023-03-25T09:55:53;99734.47;;;13.69;53.03
69223;BME280;56514;51.816;-0.026;2023-03-25T09:58:46;99767.63;;;13.73;52.68
69223;BME280;56514;51.816;-0.026;2023-03-25T10:41:13;99811.94;;;14.79;47.45
69223;BME280;56514;51.816;-0.026;2023-03-25T10:44:56;99840.63;;;15.01;45.51
69223;BME280;56514;51.816;-0.026;2023-03-25T10:52:15;99827.00;;;14.61;45.59
69223;BME280;56514;51.816;-0.026;2023-03-25T10:55:44;99829.91;;;14.85;45.79
69223;BME280;56514;51.816;-0.026;2023-03-25T10:58:37;99835.34;;;15.01;45.31
69223;BME280;56514;51.816;-0.026;2023-03-25T11:02:25;99843.78;;;15.22;44.06
69223;BME280;56514;51.816;-0.026;2023-03-25T11:05:19;99847.34;;;15.05;45.59
69223;BME280;56514;51.816;-0.026;2023-03-25T11:08:11;99845.25;;;15.17;45.43
69223;BME280;56514;51.816;-0.026;2023-03-25T11:10:59;99841.31;;;15.38;44.84
69223;BME280;56514;51.816;-0.026;2023-03-25T11:13:55;99843.41;;;15.52;44.39
69223;BME280;56514;51.816;-0.026;2023-03-25T11:20:03;99866.94;;;15.73;41.56
69223;BME280;56514;51.816;-0.026;2023-03-25T11:23:02;99872.94;;;15.32;43.04
69223;BME280;56514;51.816;-0.026;2023-03-25T11:25:49;99874.53;;;15.42;41.42
69223;BME280;56514;51.816;-0.026;2023-03-25T11:28:46;99878.91;;;15.51;42.40
69223;BME280;56514;51.816;-0.026;2023-03-25T11:31:36;99884.50;;;15.40;42.70
69223;BME280;56514;51.816;-0.026;2023-03-25T11:34:33;99886.44;;;15.56;42.04
69223;BME280;56514;51.816;-0.026;2023-03-25T11:37:36;99884.22;;;15.69;41.84
69223;BME280;56514;51.816;-0.026;2023-03-25T11:40:29;99889.22;;;15.72;42.30
69223;BME280;56514;51.816;-0.026;2023-03-25T11:43:19;99878.19;;;15.67;42.29
69223;BME280;56514;51.816;-0.026;2023-03-25T11:46:16;99890.75;;;15.82;42.26
69223;BME280;56514;51.816;-0.026;2023-03-25T11:49:10;99881.91;;;16.08;41.88
69223;BME280;56514;51.816;-0.026;2023-03-25T11:52:05;99892.91;;;15.79;41.12
69223;BME280;56514;51.816;-0.026;2023-03-25T11:55:02;99887.56;;;15.79;41.87
69223;BME280;56514;51.816;-0.026;2023-03-25T11:57:48;99876.09;;;16.04;41.68
69223;BME280;56514;51.816;-0.026;2023-03-25T12:00:45;99878.25;;;16.42;41.03
69223;BME280;56514;51.816;-0.026;2023-03-25T12:03:34;99880.84;;;16.84;39.58
69223;BME280;56514;51.816;-0.026;2023-03-25T12:06:24;99899.31;;;16.85;39.48
69223;BME280;56514;51.816;-0.026;2023-03-25T12:09:13;99889.13;;;16.57;40.99
69223;BME280;56514;51.816;-0.026;2023-03-25T12:12:08;99895.00;;;16.84;40.51
69223;BME280;56514;51.816;-0.026;2023-03-25T12:27:58;99886.41;;;16.49;41.41
69223;BME280;56514;51.816;-0.026;2023-03-25T13:03:07;99896.53;;;17.75;40.86
69223;BME280;56514;51.816;-0.026;2023-03-25T13:09:02;99903.19;;;17.31;41.02
69223;BME280;56514;51.816;-0.026;2023-03-25T13:11:56;99917.16;;;16.93;42.30
69223;BME280;56514;51.816;-0.026;2023-03-25T13:14:50;99923.47;;;16.84;43.22
69223;BME280;56514;51.816;-0.026;2023-03-25T13:17:45;99928.88;;;17.24;43.23
69223;BME280;56514;51.816;-0.026;2023-03-25T13:20:38;99924.69;;;18.79;40.15
69223;BME280;56514;51.816;-0.026;2023-03-25T13:23:27;99925.81;;;19.60;39.29
69223;BME280;56514;51.816;-0.026;2023-03-25T13:26:18;99932.19;;;18.83;40.11
69223;BME280;56514;51.816;-0.026;2023-03-25T13:32:00;99964.13;;;15.32;58.51
69223;BME280;56514;51.816;-0.026;2023-03-25T13:34:52;99953.63;;;14.24;62.42
69223;BME280;56514;51.816;-0.026;2023-03-25T13:37:42;99948.41;;;15.04;62.06
69223;BME280;56514;51.816;-0.026;2023-03-25T13:40:36;99950.84;;;15.15;60.67
69223;BME280;56514;51.816;-0.026;2023-03-25T13:43:39;99960.31;;;14.55;61.80
69223;BME280;56514;51.816;-0.026;2023-03-25T13:46:37;99949.47;;;14.02;62.67
69223;BME280;56514;51.816;-0.026;2023-03-25T13:53:22;99948.97;;;13.89;63.83
69223;BME280;56514;51.816;-0.026;2023-03-25T14:17:45;99943.41;;;16.38;50.44
69223;BME280;56514;51.816;-0.026;2023-03-25T14:21:29;99948.25;;;16.09;48.81
69223;BME280;56514;51.816;-0.026;2023-03-25T14:24:30;99934.03;;;17.74;46.46
69223;BME280;56514;51.816;-0.026;2023-03-25T14:27:25;99947.47;;;18.97;41.98
69223;BME280;56514;51.816;-0.026;2023-03-25T14:30:25;99953.16;;;18.17;42.41
69223;BME280;56514;51.816;-0.026;2023-03-25T14:33:12;99944.38;;;17.28;44.71
69223;BME280;56514;51.816;-0.026;2023-03-25T14:35:59;99943.44;;;16.80;45.39
69223;BME280;56514;51.816;-0.026;2023-03-25T14:38:56;99946.97;;;16.13;48.80
69223;BME280;56514;51.816;-0.026;2023-03-25T14:44:49;99967.25;;;15.45;53.46
69223;BME280;56514;51.816;-0.026;2023-03-25T14:47:50;99974.41;;;16.81;52.47
69223;BME280;56514;51.816;-0.026;2023-03-25T14:50:36;99967.75;;;19.45;45.58
69223;BME280;56514;51.816;-0.026;2023-03-25T14:53:25;99973.81;;;21.36;38.54
69223;BME280;56514;51.816;-0.026;2023-03-25T14:56:17;99972.97;;;22.61;35.43
69223;BME280;56514;51.816;-0.026;2023-03-25T14:59:14;99969.97;;;23.56;34.11
69223;BME280;56514;51.816;-0.026;2023-03-25T15:02:49;99977.06;;;23.96;31.71
69223;BME280;56514;51.816;-0.026;2023-03-25T15:05:38;99969.78;;;23.90;32.70
69223;BME280;56514;51.816;-0.026;2023-03-25T15:08:33;99981.41;;;24.04;31.39
69223;BME280;56514;51.816;-0.026;2023-03-25T15:11:34;99983.75;;;22.74;33.05
69223;BME280;56514;51.816;-0.026;2023-03-25T15:14:33;99987.06;;;20.15;36.93
69223;BME280;56514;51.816;-0.026;2023-03-25T15:17:46;99990.13;;;18.36;40.20
69223;BME280;56514;51.816;-0.026;2023-03-25T15:20:36;99989.53;;;17.38;43.29
69223;BME280;56514;51.816;-0.026;2023-03-25T15:55:08;99991.28;;;24.49;30.41
69223;BME280;56514;51.816;-0.026;2023-03-25T16:08:08;100011.47;;;19.75;37.01
69223;BME280;56514;51.816;-0.026;2023-03-25T16:37:26;100033.81;;;20.56;36.30
69223;BME280;56514;51.816;-0.026;2023-03-25T16:40:20;100040.72;;;20.36;35.70
69223;BME280;56514;51.816;-0.026;2023-03-25T16:43:14;100041.22;;;18.41;39.40
69223;BME280;56514;51.816;-0.026;2023-03-25T16:46:03;100044.94;;;17.92;42.11
69223;BME280;56514;51.816;-0.026;2023-03-25T16:48:52;100040.91;;;17.56;43.03
69223;BME280;56514;51.816;-0.026;2023-03-25T16:51:38;100043.59;;;17.88;43.80
69223;BME280;56514;51.816;-0.026;2023-03-25T16:54:34;100047.88;;;18.53;42.94
69223;BME280;56514;51.816;-0.026;2023-03-25T16:57:57;100042.94;;;19.95;40.70
69223;BME280;56514;51.816;-0.026;2023-03-25T17:00:51;100043.00;;;20.61;39.64
69223;BME280;56514;51.816;-0.026;2023-03-25T17:03:46;100048.88;;;21.15;38.29
69223;BME280;56514;51.816;-0.026;2023-03-25T17:06:35;100048.19;;;21.63;37.97
69223;BME280;56514;51.816;-0.026;2023-03-25T17:09:30;100049.81;;;22.00;37.35
69223;BME280;56514;51.816;-0.026;2023-03-25T17:12:22;100047.75;;;22.50;36.25
69223;BME280;56514;51.816;-0.026;2023-03-25T17:15:13;100050.44;;;22.85;35.33
69223;BME280;56514;51.816;-0.026;2023-03-25T17:18:02;100053.19;;;22.36;35.58
69223;BME280;56514;51.816;-0.026;2023-03-25T17:20:54;100049.19;;;22.25;36.50
69223;BME280;56514;51.816;-0.026;2023-03-25T17:23:43;100047.63;;;21.68;36.10
69223;BME280;56514;51.816;-0.026;2023-03-25T17:27:02;100051.84;;;20.47;38.23
69223;BME280;56514;51.816;-0.026;2023-03-25T17:30:19;100053.06;;;19.85;38.48
69223;BME280;56514;51.816;-0.026;2023-03-25T17:33:09;100049.59;;;18.85;40.62
69223;BME280;56514;51.816;-0.026;2023-03-25T17:35:57;100058.19;;;19.11;40.32
69223;BME280;56514;51.816;-0.026;2023-03-25T17:42:21;100062.50;;;18.73;39.29
69223;BME280;56514;51.816;-0.026;2023-03-25T17:45:13;100052.94;;;17.76;40.51
69223;BME280;56514;51.816;-0.026;2023-03-25T17:48:01;100061.03;;;16.93;41.73
69223;BME280;56514;51.816;-0.026;2023-03-25T17:50:55;100060.63;;;16.46;42.14
69223;BME280;56514;51.816;-0.026;2023-03-25T17:53:41;100057.94;;;15.95;42.97
69223;BME280;56514;51.816;-0.026;2023-03-25T17:56:32;100057.41;;;15.56;43.69
69223;BME280;56514;51.816;-0.026;2023-03-25T17:59:29;100055.91;;;15.27;44.69
69223;BME280;56514;51.816;-0.026;2023-03-25T18:02:49;100063.28;;;14.88;45.39
69223;BME280;56514;51.816;-0.026;2023-03-25T18:05:53;100047.88;;;14.55;45.50
69223;BME280;56514;51.816;-0.026;2023-03-25T18:09:14;100055.06;;;14.36;46.08
69223;BME280;56514;51.816;-0.026;2023-03-25T18:12:10;100047.59;;;14.12;45.74
69223;BME280;56514;51.816;-0.026;2023-03-25T18:15:03;100047.06;;;13.80;46.94
69223;BME280;56514;51.816;-0.026;2023-03-25T18:17:48;100050.00;;;13.58;47.93
69223;BME280;56514;51.816;-0.026;2023-03-25T18:20:35;100047.06;;;13.32;48.18
69223;BME280;56514;51.816;-0.026;2023-03-25T18:23:21;100048.84;;;13.13;48.84
69223;BME280;56514;51.816;-0.026;2023-03-25T18:26:16;100041.78;;;12.93;49.29
69223;BME280;56514;51.816;-0.026;2023-03-25T18:29:11;100041.34;;;12.78;49.36
69223;BME280;56514;51.816;-0.026;2023-03-25T18:32:00;100053.00;;;12.66;49.90
69223;BME280;56514;51.816;-0.026;2023-03-25T18:34:46;100047.66;;;12.57;50.20
69223;BME280;56514;51.816;-0.026;2023-03-25T18:37:34;100044.97;;;12.47;50.66
69223;BME280;56514;51.816;-0.026;2023-03-25T18:40:33;100049.31;;;12.27;50.79
69223;BME280;56514;51.816;-0.026;2023-03-25T18:43:19;100046.50;;;12.19;51.49
69223;BME280;56514;51.816;-0.026;2023-03-25T18:46:14;100047.00;;;12.13;51.82
69223;BME280;56514;51.816;-0.026;2023-03-25T18:48:58;100046.28;;;12.11;51.83
69223;BME280;56514;51.816;-0.026;2023-03-25T18:51:46;100049.03;;;12.00;51.95
69223;BME280;56514;51.816;-0.026;2023-03-25T18:54:35;100044.00;;;11.97;52.28
69223;BME280;56514;51.816;-0.026;2023-03-25T18:57:21;100044.91;;;11.87;53.01
69223;BME280;56514;51.816;-0.026;2023-03-25T19:00:17;100045.78;;;11.76;53.11
69223;BME280;56514;51.816;-0.026;2023-03-25T19:03:06;100060.69;;;11.77;53.19